Station: Kadina

  Atmospheric Gas Attenuation - ITU Rec 676-11   --------------- db/100km ---------------
Date Time Temp RH % AH g/m3 Dew Point Wind Direction Speed kph Gust kph Barometer mB Rainfall Since 9am 24GHz 47GHz 76GHz 122GHz 134GHz 241GHz
13 06:50 0.7 96 4.89 0.1 9 9 1027.4 0.2 12.2 24.0 31.1 80.8 63.1 212.6
13 06:40 0.6 96 4.85 0 9 11 1027.3 0.2 12.1 23.9 31.0 80.5 62.6 210.9
13 06:30 0.7 96 4.89 0.1 7 9 1027 0.2 12.2 24.0 31.1 80.8 63.0 212.5
13 06:20 0.7 96 4.89 0.1 7 9 1026.9 0.2 12.2 24.0 31.1 80.8 63.0 212.5
13 06:10 1 96 4.99 0.4 7 9 1026.8 0.2 12.4 24.1 31.4 81.6 64.2 216.5
13 06:00 1.2 96 5.06 0.6 9 11 1026.6 0.2 12.5 24.1 31.6 82.1 64.9 219.3
13 05:50 1.6 95 5.14 0.9 11 11 1026.7 0.2 12.7 24.1 31.7 82.6 65.7 222.0
13 05:40 2.1 96 5.38 1.5 11 11 1026.8 0.2 13.2 24.4 32.5 84.7 68.6 232.1
13 05:30 2.3 96 5.45 1.7 9 11 1026.6 0.2 13.3 24.5 32.7 85.3 69.3 234.9
13 05:20 1.9 96 5.3 1.3 11 11 1026.6 0.2 13.0 24.3 32.3 84.0 67.6 228.8
13 05:10 2.1 95 5.32 1.4 11 11 1026.7 0.2 13.0 24.3 32.3 84.0 67.7 229.2
13 04:50 2.5 95 5.47 1.8 9 11 1026.5 0.2 13.3 24.4 32.7 85.3 69.4 235.2
13 04:40 2.5 95 5.47 1.8 9 9 1026.3 0.2 13.3 24.4 32.7 85.2 69.4 235.2
13 04:30 2.7 95 5.54 2 7 9 1026.2 0.2 13.5 24.5 32.9 85.8 70.2 237.9
13 04:20 2.6 95 5.5 1.9 7 7 1026.3 0.2 13.4 24.4 32.8 85.5 69.7 236.3
13 04:10 2.8 95 5.58 2.1 9 9 1026.3 0.2 13.6 24.5 33.1 86.1 70.7 239.6
13 04:00 3.1 95 5.69 2.4 9 9 1026.3 0.2 13.8 24.6 33.4 87.0 71.9 244.0
13 03:50 3.4 95 5.81 2.7 7 9 1026.4 0.2 14.0 24.8 33.8 88.0 73.3 248.8
13 03:40 3.5 95 5.85 2.8 9 9 1026.4 0.2 14.1 24.8 33.9 88.4 73.7 250.5
13 03:30 3.4 95 5.81 2.7 9 9 1026.2 0.2 14.0 24.7 33.8 88.0 73.3 248.8
13 03:20 3.7 94 5.86 2.8 7 9 1026.3 0.2 14.1 24.7 33.8 88.2 73.7 250.3
13 03:10 3.8 94 5.9 2.9 6 7 1026.3 0.2 14.2 24.8 34.0 88.6 74.1 251.9
13 03:00 3.8 94 5.9 2.9 7 7 1026.2 0.2 14.2 24.8 34.0 88.6 74.1 251.9
13 02:50 4.7 94 6.27 3.8 7 7 1026.3 0.2 15.0 25.2 35.1 91.7 78.3 266.8
13 02:40 5 95 6.46 4.3 9 9 1026.3 0.2 15.4 25.4 35.8 93.4 80.7 274.9
13 02:30 4.8 94 6.31 3.9 9 11 1026.1 0.2 15.1 25.2 35.2 92.0 78.8 268.3
13 02:20 4.8 94 6.31 3.9 11 11 1026.1 0.2 15.1 25.2 35.2 92.0 78.8 268.3
13 02:10 4.9 94 6.35 4 15 15 1026 0.2 15.1 25.2 35.4 92.3 79.2 269.9
13 02:00 5.6 93 6.58 4.6 11 13 1025.9 0.2 15.6 25.4 36.0 94.0 81.6 278.5
13 01:50 6.9 95 7.32 6.2 9 11 1026.1 0.2 17.2 26.3 38.5 100.7 90.5 309.7
13 01:40 6.6 93 7.02 5.6 9 11 1026.1 0.2 16.5 25.9 37.4 97.7 86.7 296.2
13 01:30 7.6 94 7.58 6.7 15 15 1025.9 0.2 17.7 26.5 39.3 102.7 93.3 319.5
13 01:20 7.8 94 7.67 6.9 15 15 1026 0.2 17.9 26.6 39.5 103.5 94.3 323.1
13 01:10 7.7 94 7.63 6.8 15 17 1025.8 0.2 17.8 26.6 39.4 103.2 93.8 321.5
13 01:00 7.6 94 7.58 6.7 15 17 1025.7 0.2 17.7 26.5 39.2 102.7 93.2 319.4
13 00:50 7.5 94 7.53 6.6 15 17 1025.9 0.2 17.6 26.5 39.1 102.3 92.7 317.5
13 00:40 7.7 94 7.63 6.8 15 15 1025.9 0.2 17.8 26.6 39.4 103.2 93.8 321.5
13 00:30 7.5 94 7.53 6.6 13 15 1025.8 0.2 17.6 26.5 39.1 102.3 92.7 317.4
13 00:20 7.5 93 7.45 6.4 11 13 1025.9 0.2 17.4 26.3 38.8 101.4 91.6 313.5
13 00:10 7.6 93 7.5 6.5 13 13 1025.9 0.2 17.5 26.4 38.9 101.8 92.1 315.6
13 00:00 8 93 7.69 6.9 13 17 1025.8 0.2 17.9 26.6 39.5 103.5 94.3 323.2
12 23:50 8 93 7.69 6.9 13 15 1025.9 0.2 17.9 26.6 39.5 103.5 94.3 323.2
12 23:40 8.1 92 7.66 6.9 13 13 1025.9 0.2 17.8 26.5 39.3 103.0 93.8 321.3
12 23:30 8.6 92 7.91 7.4 15 17 1025.7 0.2 18.3 26.8 40.1 105.1 96.6 331.4
12 23:20 9 92 8.11 7.8 15 17 1025.7 0.2 18.8 27.0 40.8 106.8 98.9 339.4
12 23:10 9.2 92 8.22 8 15 17 1025.7 0 19.0 27.1 41.2 107.8 100.2 343.9
12 23:00 9.3 93 8.36 8.2 17 20 1025.6 0 19.3 27.3 41.7 109.3 102.0 350.3
12 22:50 9.3 93 8.36 8.2 17 20 1025.8 0 19.3 27.3 41.7 109.3 102.0 350.4
12 22:40 9.1 93 8.25 8 17 20 1025.8 0 19.1 27.2 41.3 108.3 100.7 345.9
12 22:30 9.1 93 8.25 8 17 20 1025.7 0 19.1 27.2 41.3 108.3 100.7 345.9
12 22:20 9.2 93 8.31 8.1 19 20 1025.7 0 19.2 27.3 41.5 108.8 101.4 348.4
12 22:10 9.1 93 8.25 8 19 20 1025.5 0 19.1 27.2 41.3 108.3 100.7 345.8
12 22:00 9 93 8.2 7.9 17 20 1025.3 0 19.0 27.1 41.2 107.8 100.1 343.7
12 21:50 8.9 92 8.06 7.7 17 20 1025.5 0 18.7 26.9 40.6 106.4 98.3 337.4
12 21:40 9 92 8.11 7.8 19 19 1025.5 0 18.8 27.0 40.8 106.8 98.9 339.4
12 21:30 9.1 92 8.17 7.9 17 20 1025.4 0 18.9 27.0 41.0 107.4 99.6 341.8
12 21:20 8.9 92 8.06 7.7 19 20 1025.4 0 18.7 26.9 40.6 106.4 98.3 337.3
12 21:10 8.7 92 7.96 7.5 19 19 1025.3 0 18.4 26.8 40.3 105.5 97.2 333.3
12 21:00 8.9 92 8.06 7.7 17 20 1025.1 0 18.7 26.9 40.6 106.4 98.3 337.3
12 20:50 9 92 8.11 7.8 17 20 1025.2 0 18.8 27.0 40.8 106.8 98.9 339.3
12 20:40 8.8 92 8.01 7.6 19 20 1025.1 0 18.6 26.9 40.4 105.9 97.7 335.2
12 20:30 8.8 93 8.1 7.7 17 20 1025 0 18.7 27.0 40.8 106.9 99.0 339.6
12 20:20 8.7 93 8.05 7.6 17 19 1025.1 0 18.6 27.0 40.7 106.5 98.4 337.6
12 20:10 8.4 94 7.98 7.5 17 20 1024.9 0 18.5 26.9 40.5 106.1 97.8 335.4
12 20:00 7.6 93 7.5 6.5 19 20 1024.7 0 17.5 26.3 38.9 101.7 92.1 315.3
12 19:50 7.5 93 7.45 6.4 19 19 1024.8 0 17.4 26.3 38.7 101.3 91.5 313.3
12 19:40 7.5 92 7.37 6.3 17 19 1024.8 0 17.2 26.1 38.4 100.4 90.4 309.4
12 19:30 7.9 92 7.56 6.7 15 17 1024.6 0 17.6 26.3 39.0 102.0 92.5 316.9
12 19:20 8.1 92 7.66 6.9 15 17 1024.6 0 17.8 26.5 39.3 102.9 93.7 321.0
12 19:10 8.2 91 7.62 6.8 15 15 1024.6 0 17.7 26.4 39.1 102.3 93.0 318.6
12 19:00 8.5 91 7.77 7.1 15 15 1024.3 0 18.0 26.5 39.5 103.5 94.7 324.6
12 18:50 8.9 91 7.97 7.5 15 15 1024.4 0 18.5 26.7 40.2 105.3 97.0 332.7
12 18:40 8.8 91 7.92 7.4 17 17 1024.3 0 18.4 26.7 40.0 104.8 96.4 330.6
12 18:30 9 90 7.94 7.5 17 17 1024 0 18.4 26.6 40.0 104.7 96.4 330.7
12 18:20 9.4 89 8.05 7.7 15 17 1024 0 18.6 26.7 40.2 105.4 97.4 334.3
12 18:10 9.9 89 8.31 8.2 17 17 1023.9 0 19.1 27.0 41.1 107.7 100.4 344.7
12 18:00 10 88 8.27 8.1 15 17 1023.6 0 19.1 26.9 40.8 107.1 99.7 342.3
12 17:50 10.1 87 8.23 8 15 17 1023.4 0 19.0 26.8 40.6 106.4 99.0 339.8
12 17:40 10.5 86 8.34 8.3 15 15 1023.3 0 19.2 26.8 40.9 107.1 100.0 343.4
12 17:30 10.8 84 8.3 8.2 13 15 1023.2 0 19.1 26.7 40.5 106.3 99.0 340.1
12 17:20 11.1 80 8.06 7.8 13 13 1023.1 0 18.6 26.2 39.4 103.2 95.4 327.4
12 17:10 11.6 79 8.21 8.1 15 15 1022.9 0 18.9 26.3 39.8 104.2 96.7 332.3
12 17:00 12.3 75 8.14 8 15 19 1022.8 0 18.7 25.9 39.1 102.5 94.9 326.0
12 16:50 13 73 8.28 8.3 15 17 1022.6 0 18.9 26.0 39.3 103.0 95.9 329.6
12 16:40 13.5 71 8.31 8.4 15 17 1022.4 0 19.0 25.9 39.2 102.7 95.7 328.8
12 16:30 13.9 68 8.15 8.1 20 26 1022.3 0 18.6 25.5 38.4 100.5 93.1 319.8
12 16:20 15 66 8.46 8.7 22 24 1022.2 0 19.2 25.7 39.0 102.3 95.8 329.4
12 16:10 14.7 69 8.69 9.1 20 24 1022.2 0 19.7 26.1 40.1 105.2 99.2 341.2
12 16:00 14.6 71 8.88 9.4 20 30 1022.1 0 20.1 26.4 40.9 107.3 101.8 350.4
12 15:50 15.1 72 9.29 10.1 19 20 1022 0 21.0 27.0 42.3 111.0 106.6 367.2
12 15:40 15.4 65 8.54 8.9 13 20 1022 0 19.4 25.7 39.2 102.6 96.3 331.3
12 15:30 15.1 66 8.51 8.8 15 20 1022 0 19.3 25.7 39.2 102.7 96.3 331.2
12 15:20 14.3 66 8.11 8 17 19 1022 0 18.5 25.3 38.0 99.5 92.1 316.3
12 15:10 14.8 65 8.23 8.3 22 28 1021.8 0 18.7 25.3 38.2 100.1 93.0 319.7
12 15:00 14.4 76 9.39 10.2 20 26 1021.7 0 21.2 27.3 43.1 113.1 108.9 375.2
12 14:50 13.9 77 9.23 9.9 22 22 1021.8 0 20.9 27.2 42.7 112.1 107.4 370.0
12 14:40 14.2 76 9.28 10 22 26 1021.6 0 21.0 27.2 42.7 112.2 107.7 370.9
12 14:30 14.8 70 8.87 9.4 22 33 1021.4 0 20.1 26.3 40.7 106.9 101.4 348.9
12 14:20 15.6 66 8.78 9.3 20 22 1021.4 0 19.9 26.0 40.0 104.8 99.1 341.2
12 14:10 14.7 73 9.19 9.9 17 20 1021.5 0 20.8 26.9 42.1 110.5 105.8 364.3

Last Refresh: 13-Jul-2020 06:59:29

Most of the information presented on this site is sourced from the Bureau of Meteorology.  Copyright in all material sourced from the Bureau of Meteorology resides with the Commonwealth of Australia.